Time;durP1;ratioP1;P1;durP2;ratioP2;P2;SDS_P1;SDS_P2;PMS_P1;PMS_P2;Temp;Humidity;BMP_temperature;BMP_pressure;BME280_temperature;BME280_humidity;BME280_pressure;Samples;Min_cycle;Max_cycle;Signal;HPM_P1;HPM_P2
2020/12/01 00:00:44;;;;;;;;;;;;;;;;;;2105870;28;41287;-61
2020/12/01 00:01:46;;;;;;;;;;;;;;;;;;2107570;28;43370;-61
2020/12/01 00:02:47;;;;;;;;;;;;;;;;;;2107651;28;42890;-61
2020/12/01 00:03:48;;;;;;;;;;;;;;;;;;2106712;28;43234;-61
2020/12/01 00:04:49;;;;;;;;;;;;;;;;;;2106807;28;41593;-61
2020/12/01 00:05:50;;;;;;;;;;;;;;;;;;2106513;28;42899;-61
2020/12/01 00:06:51;;;;;;;;;;;;;;;;;;2106796;28;42989;-61
2020/12/01 00:07:53;;;;;;;;;;;;;;;;;;2108297;28;44529;-61
2020/12/01 00:08:54;;;;;;;;;;;;;;;;;;2107298;28;42992;-61
2020/12/01 00:09:55;;;;;;;;;;;;;;;;;;2105612;28;43197;-62
2020/12/01 00:10:56;;;;;;;;;;;;;;;;;;2106216;28;43109;-61
2020/12/01 00:11:57;;;;;;;;;;;;;;;;;;2105674;28;42672;-61
2020/12/01 00:12:58;;;;;;;;;;;;;;;;;;2107207;28;44662;-61
2020/12/01 00:13:59;;;;;;;;;;;;;;;;;;2108858;28;44443;-61
2020/12/01 00:15:00;;;;;;;;;;;;;;;;;;2106994;28;42630;-61
2020/12/01 00:16:01;;;;;;;;;;;;;;;;;;2106665;28;44310;-61
2020/12/01 00:17:02;;;;;;;;;;;;;;;;;;2107096;28;42478;-61
2020/12/01 00:18:03;;;;;;;;;;;;;;;;;;2106326;28;44249;-61
2020/12/01 00:19:04;;;;;;;;;;;;;;;;;;2106359;28;44742;-61
2020/12/01 00:20:07;;;;;;;;;;;;;;;;;;2109236;28;43437;-61
2020/12/01 00:21:12;;;;;;;;;;;;;;;;;;2107242;28;44385;-61
2020/12/01 00:22:13;;;;;;;;;;;;;;;;;;2106908;28;44081;-61
2020/12/01 00:23:14;;;;;;;;;;;;;;;;;;2106527;28;44258;-62
2020/12/01 00:24:16;;;;;;;;;;;;;;;;;;2106663;28;45575;-62
2020/12/01 00:25:18;;;;;;;;;;;;;;;;;;2107472;28;44299;-61
2020/12/01 00:26:19;;;;;;;;;;;;;;;;;;2109936;28;46848;-61
2020/12/01 00:27:21;;;;;;;;;;;;;;;;;;2107226;28;45722;-61
2020/12/01 00:28:22;;;;;;;;;;;;;;;;;;2107606;28;44827;-61
2020/12/01 00:29:23;;;;;;;;;;;;;;;;;;2107424;28;44375;-62
2020/12/01 00:30:24;;;;;;;;;;;;;;;;;;2107469;28;44239;-62
2020/12/01 00:31:26;;;;;;;;;;;;;;;;;;2107868;28;44248;-62
2020/12/01 00:32:27;;;;;;;;;;;;;;;;;;2108744;28;46670;-61
2020/12/01 00:33:28;;;;;;;;;;;;;;;;;;2099917;28;45587;-61
2020/12/01 00:34:29;;;;;;;;;;;;;;;;;;2107712;28;45525;-61
2020/12/01 00:35:30;;;;;;;;;;;;;;;;;;2107872;28;45632;-61
2020/12/01 00:36:32;;;;;;;;;;;;;;;;;;2108876;28;42900;-62
2020/12/01 00:37:33;;;;;;;;;;;;;;;;;;2109020;28;45684;-61
2020/12/01 00:38:34;;;;;;;;;;;;;;;;;;2108930;28;44086;-61
2020/12/01 00:39:35;;;;;;;;;;;;;;;;;;2107285;28;45151;-61
2020/12/01 00:40:36;;;;;;;;;;;;;;;;;;2108141;28;44231;-62
2020/12/01 00:41:38;;;;;;;;;;;;;;;;;;2108297;28;44583;-62
2020/12/01 00:42:39;;;;;;;;;;;;;;;;;;2109048;28;43023;-61
2020/12/01 00:43:40;;;;;;;;;;;;;;;;;;2110592;28;45890;-62
2020/12/01 00:44:44;;;;;;;;;;;;;;;;;;2108223;28;44847;-61
2020/12/01 00:45:48;;;;;;;;;;;;;;;;;;2107775;28;46041;-62
2020/12/01 00:46:49;;;;;;;;;;;;;;;;;;2107446;28;44887;-61
2020/12/01 00:47:50;;;;;;;;;;;;;;;;;;2107913;28;43244;-61
2020/12/01 00:48:52;;;;;;;;;;;;;;;;;;2107556;28;44695;-62
2020/12/01 00:49:53;;;;;;;;;;;;;;;;;;2099816;28;46169;-61
2020/12/01 00:50:54;;;;;;;;;;;;;;;;;;2100114;28;43574;-61
2020/12/01 00:51:55;;;;;;;;;;;;;;;;;;2099799;28;44460;-61
2020/12/01 00:52:56;;;;;;;;;;;;;;;;;;2099805;28;44742;-61
2020/12/01 00:53:57;;;;;;;;;;;;;;;;;;2099961;28;44875;-61
2020/12/01 00:54:58;;;;;;;;;;;;;;;;;;2100254;28;45873;-61
2020/12/01 00:55:59;;;;;;;;;;;;;;;;;;2100357;28;44837;-61
2020/12/01 00:57:00;;;;;;;;;;;;;;;;;;2099771;28;44583;-61
2020/12/01 00:58:01;;;;;;;;;;;;;;;;;;2099752;28;46119;-60
2020/12/01 00:59:02;;;;;;;;;;;;;;;;;;2100214;28;44965;-61
2020/12/01 01:00:05;;;;;;;;;;;;;;;;;;2099900;28;44866;-60
2020/12/01 01:01:06;;;;;;;;;;;;;;;;;;2100430;28;45355;-60
2020/12/01 01:02:07;;;;;;;;;;;;;;;;;;2101562;28;42711;-61
2020/12/01 01:03:08;;;;;;;;;;;;;;;;;;2099362;28;44511;-61
2020/12/01 01:04:09;;;;;;;;;;;;;;;;;;2099522;28;44214;-61
2020/12/01 01:05:11;;;;;;;;;;;;;;;;;;2099856;28;43086;-61
2020/12/01 01:06:12;;;;;;;;;;;;;;;;;;2100594;28;41883;-60
2020/12/01 01:07:13;;;;;;;;;;;;;;;;;;2101083;28;44382;-61
2020/12/01 01:08:14;;;;;;;;;;;;;;;;;;2099763;28;44444;-61
2020/12/01 01:09:20;;;;;;;;;;;;;;;;;;2099268;28;42929;-60
2020/12/01 01:10:26;;;;;;;;;;;;;;;;;;2098687;28;44237;-61
2020/12/01 01:11:29;;;;;;;;;;;;;;;;;;2100115;28;41903;-61
2020/12/01 01:12:31;;;;;;;;;;;;;;;;;;2100813;28;43359;-61
2020/12/01 01:13:32;;;;;;;;;;;;;;;;;;2099498;28;43444;-61
2020/12/01 01:14:33;;;;;;;;;;;;;;;;;;2099895;28;44419;-60
2020/12/01 01:15:35;;;;;;;;;;;;;;;;;;2099372;28;41829;-60
2020/12/01 01:16:40;;;;;;;;;;;;;;;;;;2099531;28;43230;-60
2020/12/01 01:17:41;;;;;;;;;;;;;;;;;;2100253;28;44565;-60
2020/12/01 01:18:42;;;;;;;;;;;;;;;;;;2101276;28;43209;-60
2020/12/01 01:19:43;;;;;;;;;;;;;;;;;;2099371;28;44102;-60
2020/12/01 01:20:44;;;;;;;;;;;;;;;;;;2098817;28;44436;-60
2020/12/01 01:21:46;;;;;;;;;;;;;;;;;;2098794;28;43185;-60
2020/12/01 01:22:47;;;;;;;;;;;;;;;;;;2100121;28;44416;-60
2020/12/01 01:23:48;;;;;;;;;;;;;;;;;;2099724;28;44018;-60
2020/12/01 01:24:49;;;;;;;;;;;;;;;;;;2100351;28;44417;-61
2020/12/01 01:25:50;;;;;;;;;;;;;;;;;;2098698;28;48410;-61
2020/12/01 01:26:52;;;;;;;;;;;;;;;;;;2099436;28;43582;-61
2020/12/01 01:27:54;;;;;;;;;;;;;;;;;;2099437;28;43768;-60
2020/12/01 01:28:55;;;;;;;;;;;;;;;;;;2099953;28;45712;-61
2020/12/01 01:29:56;;;;;;;;;;;;;;;;;;2098958;28;45830;-61
2020/12/01 01:30:57;;;;;;;;;;;;;;;;;;2100483;28;45507;-62
2020/12/01 01:31:58;;;;;;;;;;;;;;;;;;2098783;28;46962;-62
2020/12/01 01:32:59;;;;;;;;;;;;;;;;;;2098861;28;44314;-62
2020/12/01 01:34:00;;;;;;;;;;;;;;;;;;2098736;28;46911;-62
2020/12/01 01:35:01;;;;;;;;;;;;;;;;;;2100000;28;44374;-62
2020/12/01 01:36:02;;;;;;;;;;;;;;;;;;2099416;28;45481;-62
2020/12/01 01:37:04;;;;;;;;;;;;;;;;;;2100158;28;45702;-62
2020/12/01 01:38:06;;;;;;;;;;;;;;;;;;2098592;28;45300;-62
2020/12/01 01:39:07;;;;;;;;;;;;;;;;;;2099264;28;45737;-62
2020/12/01 01:40:15;;;;;;;;;;;;;;;;;;2099240;28;44022;-62
2020/12/01 01:41:16;;;;;;;;;;;;;;;;;;2099583;28;43893;-62
2020/12/01 01:42:17;;;;;;;;;;;;;;;;;;2098397;28;44418;-62
2020/12/01 01:43:18;;;;;;;;;;;;;;;;;;2099938;28;42404;-63
2020/12/01 01:44:24;;;;;;;;;;;;;;;;;;2099826;28;44219;-62
2020/12/01 01:45:31;;;;;;;;;;;;;;;;;;2099247;28;44862;-62
2020/12/01 01:46:41;;;;;;;;;;;;;;;;;;2100220;28;46153;-62
2020/12/01 01:47:46;;;;;;;;;;;;;;;;;;2099368;28;46120;-61
2020/12/01 01:48:47;;;;;;;;;;;;;;;;;;2100720;28;45666;-61
2020/12/01 01:49:59;;;;;;;;;;;;;;;;;;2108165;28;43925;-61
2020/12/01 01:51:04;;;;;;;;;;;;;;;;;;2107867;28;47211;-61
2020/12/01 01:52:24;;;;;;;;;;;;;;;;;;2108084;28;44854;-61
2020/12/01 01:53:28;;;;;;;;;;;;;;;;;;2107571;28;45829;-61
2020/12/01 01:54:29;;;;;;;;;;;;;;;;;;2108284;28;46979;-61
2020/12/01 01:55:30;;;;;;;;;;;;;;;;;;2107940;28;44551;-61
2020/12/01 01:56:36;;;;;;;;;;;;;;;;;;2107186;28;42969;-61
2020/12/01 01:57:38;;;;;;;;;;;;;;;;;;2107753;28;41556;-61
2020/12/01 01:58:42;;;;;;;;;;;;;;;;;;2107853;28;45767;-61
2020/12/01 01:59:46;;;;;;;;;;;;;;;;;;2109128;28;44946;-61
2020/12/01 02:01:53;;;;;;;;;;;;;;;;;;2107728;28;44888;-60
2020/12/01 02:02:54;;;;;;;;;;;;;;;;;;2107927;28;44970;-61
2020/12/01 02:03:57;;;;;;;;;;;;;;;;;;2106935;28;46208;-61
2020/12/01 02:05:00;;;;;;;;;;;;;;;;;;2107335;28;44510;-61
2020/12/01 02:06:02;;;;;;;;;;;;;;;;;;2108204;28;45844;-61
2020/12/01 02:07:05;;;;;;;;;;;;;;;;;;2107532;28;47244;-61
2020/12/01 02:08:06;;;;;;;;;;;;;;;;;;2099901;28;48500;-61
2020/12/01 02:09:10;;;;;;;;;;;;;;;;;;2099096;28;43065;-60
2020/12/01 02:10:11;;;;;;;;;;;;;;;;;;2107981;28;43103;-61
2020/12/01 02:11:12;;;;;;;;;;;;;;;;;;2106610;28;44058;-61
2020/12/01 02:12:15;;;;;;;;;;;;;;;;;;2106843;28;42755;-61
2020/12/01 02:13:18;;;;;;;;;;;;;;;;;;2107660;28;42873;-61
2020/12/01 02:14:40;;;;;;;;;;;;;;;;;;2108085;28;42790;-61
2020/12/01 02:15:45;;;;;;;;;;;;;;;;;;2107459;28;43224;-60
2020/12/01 02:16:48;;;;;;;;;;;;;;;;;;2107702;28;43118;-61
2020/12/01 02:17:49;;;;;;;;;;;;;;;;;;2106747;28;44120;-60
2020/12/01 02:18:52;;;;;;;;;;;;;;;;;;2107309;28;42779;-60
2020/12/01 02:19:55;;;;;;;;;;;;;;;;;;2106511;28;44282;-60
2020/12/01 02:20:56;;;;;;;;;;;;;;;;;;2108777;28;43208;-60
2020/12/01 02:21:57;;;;;;;;;;;;;;;;;;2107874;28;44209;-61
2020/12/01 02:22:58;;;;;;;;;;;;;;;;;;2107693;28;42785;-61
2020/12/01 02:24:00;;;;;;;;;;;;;;;;;;2107424;28;44509;-60
2020/12/01 02:25:01;;;;;;;;;;;;;;;;;;2107245;28;42784;-61
2020/12/01 02:26:02;;;;;;;;;;;;;;;;;;2107000;28;44425;-61
2020/12/01 02:27:04;;;;;;;;;;;;;;;;;;2107363;28;44119;-61
2020/12/01 02:28:08;;;;;;;;;;;;;;;;;;2106519;28;42961;-61
2020/12/01 02:29:14;;;;;;;;;;;;;;;;;;2107659;28;42910;-61
2020/12/01 02:30:15;;;;;;;;;;;;;;;;;;2106533;28;44556;-61
2020/12/01 02:31:16;;;;;;;;;;;;;;;;;;2107348;28;44299;-61
2020/12/01 02:32:18;;;;;;;;;;;;;;;;;;2108220;28;45579;-61
2020/12/01 02:33:19;;;;;;;;;;;;;;;;;;2107773;28;43094;-61
2020/12/01 02:34:22;;;;;;;;;;;;;;;;;;2107842;28;45564;-61
2020/12/01 02:35:23;;;;;;;;;;;;;;;;;;2106841;28;44287;-61
2020/12/01 02:36:24;;;;;;;;;;;;;;;;;;2107272;28;44159;-61
2020/12/01 02:37:27;;;;;;;;;;;;;;;;;;2108938;28;44244;-60
2020/12/01 02:38:28;;;;;;;;;;;;;;;;;;2107789;28;43096;-60
2020/12/01 02:39:29;;;;;;;;;;;;;;;;;;2107856;28;45605;-60
2020/12/01 02:40:30;;;;;;;;;;;;;;;;;;2107177;28;45926;-60
2020/12/01 02:41:31;;;;;;;;;;;;;;;;;;2110166;28;44380;-61
2020/12/01 02:42:32;;;;;;;;;;;;;;;;;;2108357;28;44126;-61
2020/12/01 02:43:33;;;;;;;;;;;;;;;;;;2109308;28;46626;-62
2020/12/01 02:44:34;;;;;;;;;;;;;;;;;;2107729;28;45758;-62
2020/12/01 02:45:35;;;;;;;;;;;;;;;;;;2107105;28;45600;-62
2020/12/01 02:46:37;;;;;;;;;;;;;;;;;;2107369;28;45304;-62
2020/12/01 02:47:38;;;;;;;;;;;;;;;;;;2108270;28;43333;-61
2020/12/01 02:48:42;;;;;;;;;;;;;;;;;;2107272;28;46483;-61
2020/12/01 02:49:43;;;;;;;;;;;;;;;;;;2106156;28;45272;-61
2020/12/01 02:50:44;;;;;;;;;;;;;;;;;;2107001;28;45786;-61
2020/12/01 02:51:45;;;;;;;;;;;;;;;;;;2107413;28;44368;-61
2020/12/01 02:52:46;;;;;;;;;;;;;;;;;;2107859;28;43419;-61
2020/12/01 02:53:47;;;;;;;;;;;;;;;;;;2107257;28;44132;-61
2020/12/01 02:54:49;;;;;;;;;;;;;;;;;;2106878;28;46380;-61
2020/12/01 02:55:50;;;;;;;;;;;;;;;;;;2106864;28;44639;-61
2020/12/01 02:56:52;;;;;;;;;;;;;;;;;;2106396;28;44939;-61
2020/12/01 02:57:53;;;;;;;;;;;;;;;;;;2107704;28;45933;-61
2020/12/01 02:58:54;;;;;;;;;;;;;;;;;;2107165;28;44725;-61
2020/12/01 02:59:55;;;;;;;;;;;;;;;;;;2107214;28;46385;-65
2020/12/01 03:00:56;;;;;;;;;;;;;;;;;;2106771;28;44741;-65
2020/12/01 03:01:57;;;;;;;;;;;;;;;;;;2107495;28;44240;-62
2020/12/01 03:02:58;;;;;;;;;;;;;;;;;;2107294;28;46104;-61
2020/12/01 03:03:59;;;;;;;;;;;;;;;;;;2108330;28;44417;-61
2020/12/01 03:05:00;;;;;;;;;;;;;;;;;;2107108;28;45316;-61
2020/12/01 03:06:05;;;;;;;;;;;;;;;;;;2107176;28;44738;-61
2020/12/01 03:07:06;;;;;;;;;;;;;;;;;;2106216;28;46891;-60
2020/12/01 03:08:07;;;;;;;;;;;;;;;;;;2107690;28;44455;-60
2020/12/01 03:09:11;;;;;;;;;;;;;;;;;;2107757;28;44805;-61
2020/12/01 03:10:18;;;;;;;;;;;;;;;;;;2106729;28;44762;-61
2020/12/01 03:11:19;;;;;;;;;;;;;;;;;;2107539;28;44689;-61
2020/12/01 03:12:21;;;;;;;;;;;;;;;;;;2107201;28;44443;-60
2020/12/01 03:13:23;;;;;;;;;;;;;;;;;;2107283;28;47152;-61
2020/12/01 03:14:25;;;;;;;;;;;;;;;;;;2108512;28;43149;-60
2020/12/01 03:15:26;;;;;;;;;;;;;;;;;;2108378;28;43129;-61
2020/12/01 03:16:29;;;;;;;;;;;;;;;;;;2107212;28;41587;-61
2020/12/01 03:17:30;;;;;;;;;;;;;;;;;;2107314;28;43220;-61
2020/12/01 03:18:31;;;;;;;;;;;;;;;;;;2106488;28;43183;-60
2020/12/01 03:19:32;;;;;;;;;;;;;;;;;;2106701;28;43226;-61
2020/12/01 03:20:33;;;;;;;;;;;;;;;;;;2106509;28;43157;-60
2020/12/01 03:21:34;;;;;;;;;;;;;;;;;;2107834;28;41123;-61
2020/12/01 03:22:35;;;;;;;;;;;;;;;;;;2107174;28;42926;-61
2020/12/01 03:23:36;;;;;;;;;;;;;;;;;;2107201;28;44085;-61
2020/12/01 03:24:37;;;;;;;;;;;;;;;;;;2107956;28;43220;-60
2020/12/01 03:25:38;;;;;;;;;;;;;;;;;;2107434;28;43144;-61
2020/12/01 03:26:39;;;;;;;;;;;;;;;;;;2107250;28;44435;-60
2020/12/01 03:27:42;;;;;;;;;;;;;;;;;;2107708;28;42584;-61
2020/12/01 03:28:44;;;;;;;;;;;;;;;;;;2107547;28;44305;-61
2020/12/01 03:29:45;;;;;;;;;;;;;;;;;;2107325;28;44510;-61
2020/12/01 03:30:46;;;;;;;;;;;;;;;;;;2106289;28;42940;-61
2020/12/01 03:31:47;;;;;;;;;;;;;;;;;;2108117;28;44496;-61
2020/12/01 03:32:48;;;;;;;;;;;;;;;;;;2106834;28;42835;-61
2020/12/01 03:33:49;;;;;;;;;;;;;;;;;;2107720;28;44419;-61
2020/12/01 03:34:51;;;;;;;;;;;;;;;;;;2107901;28;44344;-61
2020/12/01 03:35:52;;;;;;;;;;;;;;;;;;2107866;28;44060;-61
2020/12/01 03:36:53;;;;;;;;;;;;;;;;;;2107078;28;45933;-61
2020/12/01 03:37:55;;;;;;;;;;;;;;;;;;2108229;28;45609;-61
2020/12/01 03:38:56;;;;;;;;;;;;;;;;;;2108448;28;45476;-61
2020/12/01 03:39:57;;;;;;;;;;;;;;;;;;2107214;28;45673;-61
2020/12/01 03:40:59;;;;;;;;;;;;;;;;;;2097972;28;42757;-61
2020/12/01 03:41:59;;;;;;;;;;;;;;;;;;2106598;28;45599;-61
2020/12/01 03:43:01;;;;;;;;;;;;;;;;;;2106358;28;43380;-60
2020/12/01 03:44:02;;;;;;;;;;;;;;;;;;2108323;28;45940;-61
2020/12/01 03:45:03;;;;;;;;;;;;;;;;;;2107180;28;44132;-61
2020/12/01 03:46:05;;;;;;;;;;;;;;;;;;2107711;28;45315;-61
2020/12/01 03:47:06;;;;;;;;;;;;;;;;;;2106415;28;44434;-60
2020/12/01 03:48:07;;;;;;;;;;;;;;;;;;2106263;28;45707;-61
2020/12/01 03:49:08;;;;;;;;;;;;;;;;;;2109967;28;45595;-60
2020/12/01 03:50:09;;;;;;;;;;;;;;;;;;2107102;28;45444;-61
2020/12/01 03:51:10;;;;;;;;;;;;;;;;;;2106566;28;45309;-61
2020/12/01 03:52:11;;;;;;;;;;;;;;;;;;2107014;28;44207;-61
2020/12/01 03:53:12;;;;;;;;;;;;;;;;;;2107125;28;45460;-61
2020/12/01 03:54:14;;;;;;;;;;;;;;;;;;2107068;28;44033;-61
2020/12/01 03:55:15;;;;;;;;;;;;;;;;;;2110469;28;45496;-61
2020/12/01 03:56:17;;;;;;;;;;;;;;;;;;2107204;28;43242;-61
2020/12/01 03:57:18;;;;;;;;;;;;;;;;;;2107228;28;46395;-61
2020/12/01 03:58:19;;;;;;;;;;;;;;;;;;2107545;28;44436;-61
2020/12/01 03:59:22;;;;;;;;;;;;;;;;;;2107183;28;44451;-61
2020/12/01 04:00:24;;;;;;;;;;;;;;;;;;2107582;28;44433;-62
2020/12/01 04:01:25;;;;;;;;;;;;;;;;;;2108670;28;45932;-62
2020/12/01 04:02:27;;;;;;;;;;;;;;;;;;2106747;28;45492;-62
2020/12/01 04:03:28;;;;;;;;;;;;;;;;;;2106819;28;46528;-62
2020/12/01 04:04:29;;;;;;;;;;;;;;;;;;2107223;28;44745;-62
2020/12/01 04:05:30;;;;;;;;;;;;;;;;;;2107020;28;45824;-62
2020/12/01 04:06:31;;;;;;;;;;;;;;;;;;2107967;28;43575;-62
2020/12/01 04:07:32;;;;;;;;;;;;;;;;;;2109106;28;46458;-62
2020/12/01 04:08:34;;;;;;;;;;;;;;;;;;2106974;28;45868;-62
2020/12/01 04:09:35;;;;;;;;;;;;;;;;;;2107266;28;44431;-62
2020/12/01 04:10:36;;;;;;;;;;;;;;;;;;2107003;28;44426;-61
2020/12/01 04:11:38;;;;;;;;;;;;;;;;;;2107157;28;46014;-61
2020/12/01 04:12:39;;;;;;;;;;;;;;;;;;2107588;28;44649;-60
2020/12/01 04:13:40;;;;;;;;;;;;;;;;;;2106938;28;46385;-60
2020/12/01 04:14:41;;;;;;;;;;;;;;;;;;2107426;28;44943;-61
2020/12/01 04:15:42;;;;;;;;;;;;;;;;;;2106840;28;44863;-61
2020/12/01 04:16:43;;;;;;;;;;;;;;;;;;2107135;28;47499;-61
2020/12/01 04:17:44;;;;;;;;;;;;;;;;;;2106770;28;45878;-60
2020/12/01 04:18:45;;;;;;;;;;;;;;;;;;2107161;28;46047;-61
2020/12/01 04:19:46;;;;;;;;;;;;;;;;;;2108047;28;44851;-60
2020/12/01 04:20:47;;;;;;;;;;;;;;;;;;2105679;28;44644;-61
2020/12/01 04:21:48;;;;;;;;;;;;;;;;;;2106432;28;43088;-62
2020/12/01 04:22:49;;;;;;;;;;;;;;;;;;2106833;28;42942;-62
2020/12/01 04:23:51;;;;;;;;;;;;;;;;;;2107521;28;43084;-62
2020/12/01 04:24:52;;;;;;;;;;;;;;;;;;2106847;28;44390;-61
2020/12/01 04:25:53;;;;;;;;;;;;;;;;;;2107434;28;44364;-61
2020/12/01 04:26:54;;;;;;;;;;;;;;;;;;2106371;28;44046;-62
2020/12/01 04:27:56;;;;;;;;;;;;;;;;;;2106320;28;41769;-62
2020/12/01 04:28:58;;;;;;;;;;;;;;;;;;2106270;28;44428;-62
2020/12/01 04:29:59;;;;;;;;;;;;;;;;;;2106512;28;45533;-61
2020/12/01 04:31:00;;;;;;;;;;;;;;;;;;2106194;28;42756;-62
2020/12/01 04:32:01;;;;;;;;;;;;;;;;;;2107906;28;43056;-61
2020/12/01 04:33:02;;;;;;;;;;;;;;;;;;2106412;28;41161;-62
2020/12/01 04:34:03;;;;;;;;;;;;;;;;;;2106131;28;43192;-61
2020/12/01 04:35:04;;;;;;;;;;;;;;;;;;2106603;28;44173;-61
2020/12/01 04:36:05;;;;;;;;;;;;;;;;;;2107167;28;41281;-61
2020/12/01 04:37:09;;;;;;;;;;;;;;;;;;2107361;28;43314;-61
2020/12/01 04:38:10;;;;;;;;;;;;;;;;;;2107924;28;43095;-61
2020/12/01 04:39:12;;;;;;;;;;;;;;;;;;2106477;28;42776;-62
2020/12/01 04:40:19;;;;;;;;;;;;;;;;;;2107051;28;42997;-61
2020/12/01 04:41:20;;;;;;;;;;;;;;;;;;2107457;28;42996;-62
2020/12/01 04:42:21;;;;;;;;;;;;;;;;;;2106390;28;45425;-61
2020/12/01 04:43:38;;;;;;;;;;;;;;;;;;2107459;28;44382;-62
2020/12/01 04:44:41;;;;;;;;;;;;;;;;;;2106329;28;45390;-61
2020/12/01 04:45:45;;;;;;;;;;;;;;;;;;2106552;28;46554;-61
2020/12/01 04:46:47;;;;;;;;;;;;;;;;;;2107452;28;42889;-61
2020/12/01 04:47:48;;;;;;;;;;;;;;;;;;2106526;28;45286;-61
2020/12/01 04:48:52;;;;;;;;;;;;;;;;;;2107229;28;44379;-61
2020/12/01 04:50:04;;;;;;;;;;;;;;;;;;2105778;28;45453;-61
2020/12/01 04:51:11;;;;;;;;;;;;;;;;;;2106651;28;44451;-61
2020/12/01 04:52:30;;;;;;;;;;;;;;;;;;2106764;28;45772;-62
2020/12/01 04:53:31;;;;;;;;;;;;;;;;;;2106509;28;45441;-61
2020/12/01 04:54:32;;;;;;;;;;;;;;;;;;2107480;28;45724;-61
2020/12/01 04:55:41;;;;;;;;;;;;;;;;;;2106170;28;44354;-62
2020/12/01 04:56:42;;;;;;;;;;;;;;;;;;2106311;28;45681;-61
2020/12/01 04:57:46;;;;;;;;;;;;;;;;;;2107562;28;43567;-61
2020/12/01 04:58:50;;;;;;;;;;;;;;;;;;2107673;28;43759;-61
2020/12/01 05:00:14;;;;;;;;;;;;;;;;;;2106875;28;46075;-61
2020/12/01 05:01:33;;;;;;;;;;;;;;;;;;2107045;28;44279;-60
2020/12/01 05:03:03;;;;;;;;;;;;;;;;;;2107045;28;45517;-60
2020/12/01 05:04:11;;;;;;;;;;;;;;;;;;2107075;28;45592;-60
2020/12/01 05:05:21;;;;;;;;;;;;;;;;;;2107082;28;44152;-62
2020/12/01 05:08:18;;;;;;;;;;;;;;;;;;2106422;28;46066;-60
2020/12/01 05:09:25;;;;;;;;;;;;;;;;;;2107276;28;44765;-63
2020/12/01 05:10:27;;;;;;;;;;;;;;;;;;2106477;28;45832;-60
2020/12/01 05:11:47;;;;;;;;;;;;;;;;;;2106684;28;44559;-60
2020/12/01 05:12:56;;;;;;;;;;;;;;;;;;2106938;28;46648;-60
2020/12/01 05:14:03;;;;;;;;;;;;;;;;;;2106982;28;44627;-60
2020/12/01 05:15:20;;;;;;;;;;;;;;;;;;2107744;28;46955;-61
2020/12/01 05:16:29;;;;;;;;;;;;;;;;;;2107030;28;44430;-61
2020/12/01 05:17:49;;;;;;;;;;;;;;;;;;2107356;28;44557;-60
2020/12/01 05:18:50;;;;;;;;;;;;;;;;;;2109253;28;46149;-60
2020/12/01 05:19:51;;;;;;;;;;;;;;;;;;2108040;28;44860;-59
2020/12/01 05:20:56;;;;;;;;;;;;;;;;;;2108474;28;47208;-59
2020/12/01 05:21:57;;;;;;;;;;;;;;;;;;2107725;28;46027;-60
2020/12/01 05:23:00;;;;;;;;;;;;;;;;;;2107814;28;44876;-60
2020/12/01 05:24:01;;;;;;;;;;;;;;;;;;2108909;28;47273;-60
2020/12/01 05:25:02;;;;;;;;;;;;;;;;;;2107815;28;45869;-60
2020/12/01 05:26:05;;;;;;;;;;;;;;;;;;2108060;28;44624;-60
2020/12/01 05:27:17;;;;;;;;;;;;;;;;;;2106980;28;44428;-59
2020/12/01 05:28:18;;;;;;;;;;;;;;;;;;2107472;28;44596;-60
2020/12/01 05:29:24;;;;;;;;;;;;;;;;;;2108836;28;42563;-60
2020/12/01 05:30:25;;;;;;;;;;;;;;;;;;2108458;28;44846;-60
2020/12/01 05:31:37;;;;;;;;;;;;;;;;;;2107788;28;44517;-60
2020/12/01 05:32:49;;;;;;;;;;;;;;;;;;2107615;28;44390;-59
2020/12/01 05:34:01;;;;;;;;;;;;;;;;;;2106969;28;43974;-61
2020/12/01 05:35:07;;;;;;;;;;;;;;;;;;2106845;28;42779;-62
2020/12/01 05:36:20;;;;;;;;;;;;;;;;;;2108855;28;42402;-61
2020/12/01 05:37:21;;;;;;;;;;;;;;;;;;2108430;28;42901;-61
2020/12/01 05:38:22;;;;;;;;;;;;;;;;;;2107633;28;43201;-60
2020/12/01 05:39:24;;;;;;;;;;;;;;;;;;2107193;28;44515;-61
2020/12/01 05:40:26;;;;;;;;;;;;;;;;;;2107535;28;44500;-60
2020/12/01 05:41:29;;;;;;;;;;;;;;;;;;2108465;28;42925;-61
2020/12/01 05:42:31;;;;;;;;;;;;;;;;;;2107457;28;43149;-60
2020/12/01 05:43:36;;;;;;;;;;;;;;;;;;2107577;28;43219;-60
2020/12/01 05:44:38;;;;;;;;;;;;;;;;;;2107312;28;43216;-60
2020/12/01 05:45:39;;;;;;;;;;;;;;;;;;2106984;28;42657;-60
2020/12/01 05:47:15;;;;;;;;;;;;;;;;;;2108039;28;42795;-60
2020/12/01 05:48:23;;;;;;;;;;;;;;;;;;2091710;28;45388;-60
2020/12/01 05:49:24;;;;;;;;;;;;;;;;;;2090485;28;41551;-62
2020/12/01 05:50:26;;;;;;;;;;;;;;;;;;2093917;28;44294;-60
2020/12/01 05:51:38;;;;;;;;;;;;;;;;;;2108243;28;42699;-61
2020/12/01 05:52:49;;;;;;;;;;;;;;;;;;2107957;28;42772;-60
2020/12/01 05:53:54;;;;;;;;;;;;;;;;;;2107160;28;42979;-60
2020/12/01 05:55:21;;;;;;;;;;;;;;;;;;2107652;28;45766;-60
2020/12/01 05:56:22;;;;;;;;;;;;;;;;;;2107028;28;41135;-60
2020/12/01 05:57:27;;;;;;;;;;;;;;;;;;2107430;28;44396;-60
2020/12/01 05:58:39;;;;;;;;;;;;;;;;;;2107368;28;44268;-60
2020/12/01 05:59:49;;;;;;;;;;;;;;;;;;2107963;28;42785;-60
2020/12/01 06:00:58;;;;;;;;;;;;;;;;;;2107854;28;45725;-62
2020/12/01 06:02:01;;;;;;;;;;;;;;;;;;2106608;28;45745;-62
2020/12/01 06:03:06;;;;;;;;;;;;;;;;;;2107684;28;44387;-62
2020/12/01 06:04:17;;;;;;;;;;;;;;;;;;2106772;28;44275;-62
2020/12/01 06:05:20;;;;;;;;;;;;;;;;;;2100681;28;45578;-63
2020/12/01 06:06:24;;;;;;;;;;;;;;;;;;2108004;28;45474;-62
2020/12/01 06:07:26;;;;;;;;;;;;;;;;;;2108013;28;44280;-62
2020/12/01 06:08:46;;;;;;;;;;;;;;;;;;2106927;28;46730;-62
2020/12/01 06:09:58;;;;;;;;;;;;;;;;;;2107602;28;44131;-62
2020/12/01 06:11:20;;;;;;;;;;;;;;;;;;2107750;28;44273;-62
2020/12/01 06:12:36;;;;;;;;;;;;;;;;;;2106831;28;43084;-62
2020/12/01 06:13:44;;;;;;;;;;;;;;;;;;2107438;28;45747;-63
2020/12/01 06:14:55;;;;;;;;;;;;;;;;;;2107412;28;44422;-63
2020/12/01 06:16:08;;;;;;;;;;;;;;;;;;2107316;28;45574;-62
2020/12/01 06:17:28;;;;;;;;;;;;;;;;;;2107463;28;42746;-62
2020/12/01 06:18:36;;;;;;;;;;;;;;;;;;2109910;28;44061;-62
2020/12/01 06:19:56;;;;;;;;;;;;;;;;;;2107924;28;47087;-62
2020/12/01 06:21:08;;;;;;;;;;;;;;;;;;2107614;28;45740;-62
2020/12/01 06:22:09;;;;;;;;;;;;;;;;;;2108510;28;43277;-61
2020/12/01 06:23:16;;;;;;;;;;;;;;;;;;2110100;28;42672;-62
2020/12/01 06:24:40;;;;;;;;;;;;;;;;;;2108652;28;44434;-61
2020/12/01 06:25:48;;;;;;;;;;;;;;;;;;2107476;28;42575;-61
2020/12/01 06:26:54;;;;;;;;;;;;;;;;;;2107612;28;44092;-61
2020/12/01 06:28:14;;;;;;;;;;;;;;;;;;2106839;28;44842;-61
2020/12/01 06:29:21;;;;;;;;;;;;;;;;;;2108652;28;46048;-61
2020/12/01 06:30:34;;;;;;;;;;;;;;;;;;2107604;28;45940;-61
2020/12/01 06:31:41;;;;;;;;;;;;;;;;;;2106563;28;44770;-61
2020/12/01 06:32:43;;;;;;;;;;;;;;;;;;2107384;28;45487;-60
2020/12/01 06:34:02;;;;;;;;;;;;;;;;;;2106669;28;44748;-61
2020/12/01 06:35:15;;;;;;;;;;;;;;;;;;2107395;28;43283;-61
2020/12/01 06:36:16;;;;;;;;;;;;;;;;;;2109498;28;45357;-61
2020/12/01 06:37:17;;;;;;;;;;;;;;;;;;2107503;28;44998;-61
2020/12/01 06:38:48;;;;;;;;;;;;;;;;;;2107241;28;44864;-61
2020/12/01 06:39:57;;;;;;;;;;;;;;;;;;2106963;28;46064;-60
2020/12/01 06:41:06;;;;;;;;;;;;;;;;;;2107334;28;44869;-61
2020/12/01 06:42:30;;;;;;;;;;;;;;;;;;2108101;28;44337;-60
2020/12/01 06:43:36;;;;;;;;;;;;;;;;;;2106998;28;44747;-61
2020/12/01 06:44:38;;;;;;;;;;;;;;;;;;2107205;28;44267;-61
2020/12/01 06:45:44;;;;;;;;;;;;;;;;;;2106559;28;43208;-61
2020/12/01 06:46:50;;;;;;;;;;;;;;;;;;2108178;28;44751;-61
2020/12/01 06:47:52;;;;;;;;;;;;;;;;;;2107853;28;43232;-61
2020/12/01 06:48:54;;;;;;;;;;;;;;;;;;2111031;28;43096;-60
2020/12/01 06:50:05;;;;;;;;;;;;;;;;;;2105849;28;42913;-61
2020/12/01 06:51:09;;;;;;;;;;;;;;;;;;2107129;28;42255;-61
2020/12/01 06:52:12;;;;;;;;;;;;;;;;;;2107026;28;41634;-62
2020/12/01 06:53:22;;;;;;;;;;;;;;;;;;2107604;28;43602;-62
2020/12/01 06:54:27;;;;;;;;;;;;;;;;;;2105187;28;42532;-62
2020/12/01 06:55:39;;;;;;;;;;;;;;;;;;2105917;28;44584;-62
2020/12/01 06:56:41;;;;;;;;;;;;;;;;;;2106335;28;45550;-62
2020/12/01 06:57:42;;;;;;;;;;;;;;;;;;2105999;28;43837;-62
2020/12/01 06:58:47;;;;;;;;;;;;;;;;;;2105822;28;44459;-62
2020/12/01 06:59:48;;;;;;;;;;;;;;;;;;2106676;28;42923;-61
2020/12/01 07:00:49;;;;;;;;;;;;;;;;;;2106369;28;45641;-61
2020/12/01 07:01:50;;;;;;;;;;;;;;;;;;2105393;28;42960;-61
2020/12/01 07:02:51;;;;;;;;;;;;;;;;;;2105951;28;41925;-61
2020/12/01 07:04:07;;;;;;;;;;;;;;;;;;2105910;28;42966;-62
2020/12/01 07:05:09;;;;;;;;;;;;;;;;;;2106314;28;42931;-61
2020/12/01 07:06:10;;;;;;;;;;;;;;;;;;2106745;28;42819;-61
2020/12/01 07:07:31;;;;;;;;;;;;;;;;;;2106382;28;44561;-62
2020/12/01 07:08:32;;;;;;;;;;;;;;;;;;2105786;28;44278;-62
2020/12/01 07:09:47;;;;;;;;;;;;;;;;;;2106238;28;44396;-62
2020/12/01 07:10:48;;;;;;;;;;;;;;;;;;2097708;28;44422;-62
2020/12/01 07:11:58;;;;;;;;;;;;;;;;;;2098485;28;42748;-62
2020/12/01 07:13:12;;;;;;;;;;;;;;;;;;2097925;28;45550;-62
2020/12/01 07:14:18;;;;;;;;;;;;;;;;;;2098062;28;45607;-62
2020/12/01 07:15:36;;;;;;;;;;;;;;;;;;2096931;28;45440;-62
2020/12/01 07:16:44;;;;;;;;;;;;;;;;;;2097368;28;44117;-64
2020/12/01 07:17:59;;;;;;;;;;;;;;;;;;2097595;28;45504;-61
2020/12/01 07:19:05;;;;;;;;;;;;;;;;;;2099401;28;42702;-62
2020/12/01 07:20:17;;;;;;;;;;;;;;;;;;2106453;28;42832;-62